createdAt,value
2023-04-12T00:01:43.243Z,7.11
2023-04-12T00:04:11.082Z,7.11
2023-04-12T00:06:37.999Z,7.14
2023-04-12T00:09:05.045Z,7.16
2023-04-12T00:11:32.156Z,7.10
2023-04-12T00:13:59.159Z,7.08
2023-04-12T00:16:26.177Z,7.08
2023-04-12T00:18:53.117Z,7.11
2023-04-12T00:21:19.998Z,7.14
2023-04-12T00:23:47.557Z,7.15
2023-04-12T00:28:42.991Z,7.06
2023-04-12T00:31:09.916Z,7.02
2023-04-12T00:33:37.632Z,6.99
2023-04-12T00:36:04.836Z,6.97
2023-04-12T00:38:31.676Z,6.98
2023-04-12T00:40:58.586Z,6.98
2023-04-12T00:43:27.765Z,6.98
2023-04-12T00:45:56.794Z,7.01
2023-04-12T00:48:27.566Z,7.06
2023-04-12T00:50:57.829Z,7.09
2023-04-12T00:53:24.699Z,7.09
2023-04-12T00:55:52.542Z,7.09
2023-04-12T00:58:24.427Z,7.07
2023-04-12T01:00:53.114Z,7.04
2023-04-12T01:03:23.682Z,6.99
2023-04-12T01:06:14.578Z,6.94
2023-04-12T01:09:15.664Z,6.91
2023-04-12T01:11:46.050Z,6.89
2023-04-12T01:14:39.320Z,6.91
2023-04-12T01:17:07.454Z,6.91
2023-04-12T01:20:13.606Z,6.92
2023-04-12T01:23:12.741Z,6.91
2023-04-12T01:26:22.063Z,6.82
2023-04-12T01:28:52.860Z,6.79
2023-04-12T01:31:20.965Z,6.78
2023-04-12T01:33:52.101Z,6.79
2023-04-12T01:36:22.362Z,6.81
2023-04-12T01:38:50.156Z,6.80
2023-04-12T01:41:17.029Z,6.77
2023-04-12T01:43:45.614Z,6.73
2023-04-12T01:46:15.138Z,6.71
2023-04-12T01:48:52.975Z,6.72
2023-04-12T01:51:48.184Z,6.72
2023-04-12T01:54:37.307Z,6.72
2023-04-12T01:57:05.304Z,6.75
2023-04-12T01:59:36.793Z,6.77
2023-04-12T02:02:03.942Z,6.80
2023-04-12T02:04:36.568Z,6.83
2023-04-12T02:07:03.975Z,6.79
2023-04-12T02:09:30.851Z,6.75
2023-04-12T02:11:57.914Z,6.74
2023-04-12T02:14:24.785Z,6.75
2023-04-12T02:16:54.929Z,6.72
2023-04-12T02:19:22.265Z,6.74
2023-04-12T02:21:50.051Z,6.75
2023-04-12T02:24:17.185Z,6.77
2023-04-12T02:26:44.748Z,6.79
2023-04-12T02:29:12.441Z,6.80
2023-04-12T02:31:40.260Z,6.82
2023-04-12T02:34:10.855Z,6.80
2023-04-12T02:36:40.930Z,6.82
2023-04-12T02:39:07.999Z,6.84
2023-04-12T02:41:36.653Z,6.86
2023-04-12T02:44:07.737Z,6.88
2023-04-12T02:46:35.295Z,6.90
2023-04-12T02:49:02.511Z,6.88
2023-04-12T02:51:38.496Z,6.88
2023-04-12T02:54:06.074Z,6.90
2023-04-12T02:56:47.627Z,6.94
2023-04-12T02:59:34.388Z,7.00
2023-04-12T03:02:21.936Z,7.03
2023-04-12T03:04:54.953Z,7.06
2023-04-12T03:07:30.576Z,7.03
2023-04-12T03:09:58.845Z,7.02
2023-04-12T03:12:26.352Z,7.02
2023-04-12T03:15:08.399Z,7.10
2023-04-12T03:17:45.977Z,7.12
2023-04-12T03:20:48.675Z,7.16
2023-04-12T03:23:29.856Z,7.08
2023-04-12T03:26:07.222Z,7.07
2023-04-12T03:28:35.125Z,7.09
2023-04-12T03:31:05.212Z,7.13
2023-04-12T03:33:39.704Z,7.16
2023-04-12T03:36:11.601Z,7.18
2023-04-12T03:38:38.543Z,7.20
2023-04-12T03:41:08.913Z,7.06
2023-04-12T03:43:37.803Z,7.01
2023-04-12T03:46:16.540Z,7.05
2023-04-12T03:48:44.890Z,7.08
2023-04-12T03:51:12.459Z,7.07
2023-04-12T03:53:43.989Z,7.03
2023-04-12T03:56:14.895Z,7.02
2023-04-12T03:58:45.091Z,6.99
2023-04-12T04:01:13.999Z,6.95
2023-04-12T04:03:45.969Z,6.91
2023-04-12T04:06:31.347Z,6.90
2023-04-12T04:08:58.310Z,6.90
2023-04-12T04:11:27.146Z,6.92
2023-04-12T04:14:02.542Z,6.97
2023-04-12T04:16:31.003Z,6.98
2023-04-12T04:19:02.703Z,6.95
2023-04-12T04:21:32.703Z,6.93
2023-04-12T04:24:01.342Z,6.96
2023-04-12T04:26:33.644Z,7.00
2023-04-12T04:29:12.986Z,7.01
2023-04-12T04:31:40.148Z,6.99
2023-04-12T04:34:09.766Z,7.01
2023-04-12T04:36:42.133Z,7.01
2023-04-12T04:39:09.929Z,7.01
2023-04-12T04:41:41.384Z,7.03
2023-04-12T04:44:14.443Z,7.04
2023-04-12T04:46:50.152Z,7.05
2023-04-12T04:49:17.155Z,7.08
2023-04-12T04:51:44.112Z,7.11
2023-04-12T04:54:14.141Z,7.13
2023-04-12T04:56:42.369Z,7.16
2023-04-12T04:59:10.855Z,7.18
2023-04-12T05:01:38.313Z,7.20
2023-04-12T05:04:06.078Z,7.20
2023-04-12T05:06:33.129Z,7.25
2023-04-12T05:09:01.770Z,7.30
2023-04-12T05:11:31.709Z,7.32
2023-04-12T05:13:58.709Z,7.34
2023-04-12T05:16:25.758Z,7.43
2023-04-12T05:18:52.704Z,7.51
2023-04-12T05:21:19.919Z,7.57
2023-04-12T05:23:47.695Z,7.55
2023-04-12T05:26:14.699Z,7.54
2023-04-12T05:28:46.513Z,7.52
2023-04-12T05:31:14.414Z,7.53
2023-04-12T05:33:41.306Z,7.49
2023-04-12T05:36:09.065Z,7.46
2023-04-12T05:38:36.173Z,7.42
2023-04-12T05:41:09.430Z,7.40
2023-04-12T05:43:37.890Z,7.37
2023-04-12T05:46:08.069Z,7.45
2023-04-12T05:48:36.235Z,7.51
2023-04-12T05:51:05.083Z,7.53
2023-04-12T05:53:32.826Z,7.62
2023-04-12T05:56:02.743Z,7.78
2023-04-12T05:58:30.119Z,7.95
2023-04-12T06:00:57.214Z,8.09
2023-04-12T06:03:24.270Z,8.20
2023-04-12T06:05:53.053Z,8.29
2023-04-12T06:08:20.084Z,8.30
2023-04-12T06:10:47.083Z,8.26
2023-04-12T06:13:15.124Z,8.22
2023-04-12T06:15:43.515Z,8.19
2023-04-12T06:18:13.064Z,8.17
2023-04-12T06:20:41.155Z,8.20
2023-04-12T06:23:08.050Z,8.27
2023-04-12T06:25:35.640Z,8.34
2023-04-12T06:28:04.019Z,8.45
2023-04-12T06:30:33.072Z,8.57
2023-04-12T06:33:00.218Z,8.61
2023-04-12T06:35:27.140Z,8.60
2023-04-12T06:37:54.150Z,8.59
2023-04-12T06:40:21.113Z,8.59
2023-04-12T06:42:48.190Z,8.60
2023-04-12T06:45:21.704Z,8.70
2023-04-12T06:47:48.535Z,8.74
2023-04-12T06:50:15.769Z,8.76
2023-04-12T06:52:42.625Z,8.78
2023-04-12T06:55:09.976Z,8.83
2023-04-12T06:57:36.934Z,8.95
2023-04-12T07:00:04.645Z,9.00
2023-04-12T07:02:31.659Z,9.02
2023-04-12T07:04:58.799Z,9.04
2023-04-12T07:07:25.938Z,9.02
2023-04-12T07:09:53.173Z,9.02
2023-04-12T07:12:20.098Z,8.99
2023-04-12T07:14:46.973Z,8.89
2023-04-12T07:17:14.049Z,8.83
2023-04-12T07:19:42.217Z,8.85
2023-04-12T07:22:09.209Z,8.95
2023-04-12T07:24:36.248Z,8.95
2023-04-12T07:27:03.941Z,8.96
2023-04-12T07:29:30.980Z,9.00
2023-04-12T07:31:59.945Z,9.04
2023-04-12T07:34:26.994Z,9.05
2023-04-12T07:36:53.899Z,8.99
2023-04-12T07:39:21.271Z,9.05
2023-04-12T07:41:49.733Z,9.09
2023-04-12T07:44:16.701Z,9.06
2023-04-12T07:46:43.610Z,9.09
2023-04-12T07:49:10.737Z,9.07
2023-04-12T07:51:37.800Z,9.14
2023-04-12T07:54:04.796Z,9.07
2023-04-12T07:56:35.760Z,9.00
2023-04-12T07:59:02.989Z,9.05
2023-04-12T08:01:30.454Z,9.11
2023-04-12T08:03:57.759Z,9.13
2023-04-12T08:06:26.777Z,9.13
2023-04-12T08:08:55.571Z,9.12
2023-04-12T08:11:22.423Z,9.05
2023-04-12T08:13:49.324Z,8.94
2023-04-12T08:16:16.464Z,9.03
2023-04-12T08:18:43.661Z,9.15
2023-04-12T08:21:10.749Z,9.31
2023-04-12T08:23:38.262Z,9.37
2023-04-12T08:26:05.540Z,9.47
2023-04-12T08:28:33.004Z,9.45
2023-04-12T08:31:00.003Z,8.88
2023-04-12T08:33:27.573Z,8.86
2023-04-12T08:35:55.328Z,8.91
2023-04-12T08:38:30.645Z,8.89
2023-04-12T08:41:04.967Z,8.92
2023-04-12T08:43:33.270Z,9.14
2023-04-12T08:46:01.127Z,9.06
2023-04-12T08:48:28.519Z,9.09
2023-04-12T08:50:57.743Z,9.34
2023-04-12T08:53:24.998Z,9.55
2023-04-12T08:55:52.184Z,9.32
2023-04-12T08:58:20.998Z,9.26
2023-04-12T09:00:48.349Z,9.67
2023-04-12T09:03:15.814Z,9.91
2023-04-12T09:05:42.994Z,9.87
2023-04-12T09:08:10.145Z,9.64
2023-04-12T09:10:38.553Z,9.87
2023-04-12T09:13:06.329Z,9.84
2023-04-12T09:15:36.417Z,10.16
2023-04-12T09:18:09.090Z,10.08
2023-04-12T09:20:37.413Z,10.20
2023-04-12T09:23:24.195Z,10.23
2023-04-12T09:25:54.352Z,10.14
2023-04-12T09:28:27.158Z,10.19
2023-04-12T09:30:55.649Z,10.02
2023-04-12T09:33:24.869Z,10.21
2023-04-12T09:36:00.917Z,10.07
2023-04-12T09:38:27.838Z,10.33
2023-04-12T09:40:55.753Z,10.45
2023-04-12T09:43:42.530Z,10.43
2023-04-12T09:46:13.936Z,10.45
2023-04-12T09:48:42.199Z,10.56
2023-04-12T09:51:09.233Z,10.63
2023-04-12T09:53:36.589Z,10.64
2023-04-12T09:56:04.732Z,10.60
2023-04-12T09:58:33.027Z,10.71
2023-04-12T10:01:01.822Z,10.80
2023-04-12T10:03:29.345Z,10.79
2023-04-12T10:05:56.380Z,10.74
2023-04-12T10:08:24.219Z,10.57
2023-04-12T10:10:53.673Z,10.57
2023-04-12T10:13:21.467Z,10.63
2023-04-12T10:15:51.117Z,10.74
2023-04-12T10:18:18.894Z,10.78
2023-04-12T10:20:47.784Z,10.97
2023-04-12T10:23:18.457Z,11.10
2023-04-12T10:25:47.402Z,11.09
2023-04-12T10:28:19.781Z,11.02
2023-04-12T10:30:52.133Z,10.94
2023-04-12T10:33:21.269Z,11.00
2023-04-12T10:35:54.579Z,10.95
2023-04-12T10:38:23.341Z,11.11
2023-04-12T10:41:15.898Z,11.26
2023-04-12T10:43:44.766Z,11.19
2023-04-12T10:46:51.780Z,11.23
2023-04-12T10:49:19.302Z,11.35
2023-04-12T10:52:11.906Z,11.44
2023-04-12T10:54:39.390Z,11.33
2023-04-12T10:57:08.269Z,11.28
2023-04-12T10:59:59.522Z,11.36
2023-04-12T11:02:26.913Z,11.45
2023-04-12T11:05:19.378Z,11.51
2023-04-12T11:07:54.078Z,11.42
2023-04-12T11:10:41.793Z,11.02
2023-04-12T11:13:14.935Z,11.17
2023-04-12T11:15:42.186Z,11.47
2023-04-12T11:18:12.726Z,11.62
2023-04-12T11:20:43.301Z,11.68
2023-04-12T11:23:11.552Z,11.68
2023-04-12T11:25:38.928Z,11.71
2023-04-12T11:28:17.190Z,11.71
2023-04-12T11:30:56.327Z,11.72
2023-04-12T11:33:36.228Z,11.65
2023-04-12T11:36:07.513Z,11.65
2023-04-12T11:38:35.890Z,11.61
2023-04-12T11:41:03.008Z,11.54
2023-04-12T11:43:30.205Z,11.43
2023-04-12T11:46:01.026Z,11.29
2023-04-12T11:48:29.036Z,11.25
2023-04-12T11:51:10.461Z,11.20
2023-04-12T11:53:39.288Z,11.11
2023-04-12T11:56:07.005Z,11.05
2023-04-12T11:58:33.869Z,11.02
2023-04-12T12:01:00.950Z,11.02
2023-04-12T12:03:28.383Z,11.02
2023-04-12T12:05:56.109Z,11.05
2023-04-12T12:08:24.571Z,11.00
2023-04-12T12:11:04.046Z,10.94
2023-04-12T12:13:56.941Z,10.92
2023-04-12T12:16:29.466Z,10.89
2023-04-12T12:18:57.326Z,10.84
2023-04-12T12:21:24.331Z,10.88
2023-04-12T12:23:51.457Z,10.92
2023-04-12T12:26:23.557Z,11.02
2023-04-12T12:28:52.731Z,11.11
2023-04-12T12:31:24.394Z,11.07
2023-04-12T12:33:57.237Z,11.09
2023-04-12T12:36:36.177Z,11.16
2023-04-12T12:39:07.432Z,11.28
2023-04-12T12:41:34.700Z,11.32
2023-04-12T12:44:01.553Z,11.22
2023-04-12T12:46:40.729Z,11.02
2023-04-12T12:49:15.811Z,10.98
2023-04-12T12:51:43.145Z,10.96
2023-04-12T12:54:10.042Z,10.96
2023-04-12T12:56:37.093Z,10.94
2023-04-12T12:59:04.212Z,10.93
2023-04-12T13:01:31.151Z,10.82
2023-04-12T13:03:59.244Z,10.80
2023-04-12T13:06:27.208Z,10.75
2023-04-12T13:08:55.378Z,10.72
2023-04-12T13:11:22.289Z,10.73
2023-04-12T13:13:49.086Z,10.70
2023-04-12T13:16:16.590Z,10.68
2023-04-12T13:18:43.535Z,10.78
2023-04-12T13:21:10.553Z,10.93
2023-04-12T13:23:37.367Z,11.09
2023-04-12T13:26:04.648Z,11.15
2023-04-12T13:28:31.602Z,11.30
2023-04-12T13:30:58.560Z,11.39
2023-04-12T13:33:25.486Z,11.44
2023-04-12T13:35:52.466Z,11.49
2023-04-12T13:38:19.384Z,11.53
2023-04-12T13:40:46.248Z,11.63
2023-04-12T13:43:13.186Z,11.81
2023-04-12T13:45:40.074Z,12.01
2023-04-12T13:48:07.043Z,12.11
2023-04-12T13:50:33.909Z,12.05
2023-04-12T13:53:01.942Z,11.92
2023-04-12T13:55:28.860Z,11.99
2023-04-12T13:57:55.919Z,12.17
2023-04-12T14:00:23.536Z,12.35
2023-04-12T14:02:50.529Z,12.31
2023-04-12T14:05:17.622Z,12.27
2023-04-12T14:07:44.491Z,12.11
2023-04-12T14:10:11.630Z,11.95
2023-04-12T14:12:38.568Z,11.81
2023-04-12T14:15:06.403Z,11.69
2023-04-12T14:17:33.405Z,11.58
2023-04-12T14:20:00.636Z,11.49
2023-04-12T14:22:28.236Z,11.50
2023-04-12T14:24:55.266Z,11.57
2023-04-12T14:27:22.549Z,11.54
2023-04-12T14:29:49.627Z,11.50
2023-04-12T14:32:16.560Z,11.46
2023-04-12T14:34:43.624Z,11.51
2023-04-12T14:37:10.948Z,11.61
2023-04-12T14:39:37.858Z,11.71
2023-04-12T14:42:05.851Z,11.77
2023-04-12T14:44:32.804Z,11.78
2023-04-12T14:46:59.724Z,11.77
2023-04-12T14:49:26.727Z,11.74
2023-04-12T14:51:53.560Z,11.74
2023-04-12T14:54:21.018Z,11.77
2023-04-12T14:56:54.680Z,11.92
2023-04-12T14:59:23.621Z,12.06
2023-04-12T15:01:52.816Z,12.08
2023-04-12T15:04:20.327Z,12.05
2023-04-12T15:06:47.412Z,11.99
2023-04-12T15:09:15.730Z,11.96
2023-04-12T15:11:47.282Z,11.90
2023-04-12T15:14:20.954Z,11.86
2023-04-12T15:16:51.276Z,11.78
2023-04-12T15:19:22.947Z,11.80
2023-04-12T15:21:51.581Z,11.76
2023-04-12T15:24:19.105Z,11.74
2023-04-12T15:26:48.494Z,11.73
2023-04-12T15:29:16.777Z,11.69
2023-04-12T15:31:43.892Z,11.66
2023-04-12T15:34:11.603Z,11.67
2023-04-12T15:36:40.651Z,11.63
2023-04-12T15:39:07.542Z,11.57
2023-04-12T15:41:38.666Z,11.51
2023-04-12T15:44:07.033Z,11.44
2023-04-12T15:46:34.747Z,11.41
2023-04-12T15:49:02.225Z,11.38
2023-04-12T15:51:31.241Z,11.33
2023-04-12T15:54:00.318Z,11.26
2023-04-12T15:56:40.610Z,11.21
2023-04-12T15:59:13.554Z,11.16
2023-04-12T16:01:43.877Z,11.09
2023-04-12T16:04:14.900Z,11.03
2023-04-12T16:06:47.334Z,11.00
2023-04-12T16:09:18.358Z,10.97
2023-04-12T16:11:51.725Z,10.96
2023-04-12T16:14:21.477Z,11.02
2023-04-12T16:16:59.436Z,10.99
2023-04-12T16:19:26.827Z,10.98
2023-04-12T16:21:54.721Z,10.96
2023-04-12T16:24:21.661Z,10.94
2023-04-12T16:26:48.542Z,10.93
2023-04-12T16:29:15.603Z,10.95
2023-04-12T16:31:42.507Z,11.00
2023-04-12T16:34:10.099Z,11.04
2023-04-12T16:36:37.579Z,11.08
2023-04-12T16:39:06.330Z,11.11
2023-04-12T16:41:33.299Z,11.13
2023-04-12T16:44:01.645Z,11.14
2023-04-12T16:46:28.725Z,11.16
2023-04-12T16:48:56.608Z,11.17
2023-04-12T16:51:23.730Z,11.16
2023-04-12T16:53:50.912Z,11.15
2023-04-12T16:56:18.495Z,11.12
2023-04-12T16:58:45.307Z,11.07
2023-04-12T17:01:16.597Z,11.04
2023-04-12T17:03:44.461Z,10.95
2023-04-12T17:06:11.323Z,10.83
2023-04-12T17:08:38.213Z,10.73
2023-04-12T17:11:05.218Z,10.65
2023-04-12T17:13:32.250Z,10.57
2023-04-12T17:15:59.048Z,10.47
2023-04-12T17:18:26.034Z,10.34
2023-04-12T17:20:52.876Z,10.18
2023-04-12T17:23:21.408Z,10.03
2023-04-12T17:25:49.138Z,9.91
2023-04-12T17:28:15.922Z,9.81
2023-04-12T17:30:43.449Z,9.71
2023-04-12T17:33:10.243Z,9.61
2023-04-12T17:35:37.633Z,9.55
2023-04-12T17:38:05.049Z,9.43
2023-04-12T17:40:31.995Z,9.32
2023-04-12T17:42:58.756Z,9.25
2023-04-12T17:45:25.841Z,9.15
2023-04-12T17:47:52.749Z,9.08
2023-04-12T17:50:19.650Z,9.05
2023-04-12T17:52:47.572Z,8.98
2023-04-12T17:55:14.557Z,8.90
2023-04-12T17:57:41.994Z,8.84
2023-04-12T18:00:14.556Z,8.77
2023-04-12T18:02:44.019Z,8.68
2023-04-12T18:05:13.301Z,8.63
2023-04-12T18:07:41.945Z,8.55
2023-04-12T18:10:15.378Z,8.50
2023-04-12T18:12:44.253Z,8.41
2023-04-12T18:15:11.469Z,8.34
2023-04-12T18:17:39.847Z,8.28
2023-04-12T18:20:11.471Z,8.22
2023-04-12T18:22:38.936Z,8.20
2023-04-12T18:25:09.664Z,8.14
2023-04-12T18:27:36.656Z,8.09
2023-04-12T18:30:04.917Z,8.00
2023-04-12T18:32:32.269Z,7.96
2023-04-12T18:34:59.094Z,7.89
2023-04-12T18:37:26.503Z,7.81
2023-04-12T18:39:53.583Z,7.76
2023-04-12T18:42:20.944Z,7.70
2023-04-12T18:44:47.877Z,7.64
2023-04-12T18:47:14.841Z,7.58
2023-04-12T18:49:42.066Z,7.49
2023-04-12T18:52:08.931Z,7.43
2023-04-12T18:54:36.177Z,7.44
2023-04-12T18:57:03.688Z,7.44
2023-04-12T18:59:30.813Z,7.45
2023-04-12T19:01:57.776Z,7.41
2023-04-12T19:04:24.799Z,7.37
2023-04-12T19:06:52.121Z,7.28
2023-04-12T19:09:19.094Z,7.17
2023-04-12T19:11:46.429Z,7.07
2023-04-12T19:14:13.277Z,7.00
2023-04-12T19:16:40.508Z,6.94
2023-04-12T19:19:07.434Z,6.88
2023-04-12T19:21:34.265Z,6.85
2023-04-12T19:24:01.398Z,6.79
2023-04-12T19:26:28.936Z,6.73
2023-04-12T19:28:58.307Z,6.68
2023-04-12T19:31:25.851Z,6.62
2023-04-12T19:33:54.801Z,6.56
2023-04-12T19:36:24.574Z,6.49
2023-04-12T19:38:53.916Z,6.44
2023-04-12T19:41:21.707Z,6.40
2023-04-12T19:43:50.439Z,6.36
2023-04-12T19:46:18.235Z,6.33
2023-04-12T19:48:46.422Z,6.30
2023-04-12T19:51:13.960Z,6.28
2023-04-12T19:53:42.019Z,6.26
2023-04-12T19:56:09.821Z,6.21
2023-04-12T19:58:37.330Z,6.17
2023-04-12T20:01:04.578Z,6.11
2023-04-12T20:03:31.492Z,6.03
2023-04-12T20:05:59.120Z,5.99
2023-04-12T20:08:27.344Z,5.96
2023-04-12T20:10:54.269Z,5.94
2023-04-12T20:13:21.090Z,5.87
2023-04-12T20:15:47.977Z,5.83
2023-04-12T20:18:15.043Z,5.80
2023-04-12T20:20:44.889Z,5.72
2023-04-12T20:23:14.824Z,5.64
2023-04-12T20:25:42.647Z,5.61
2023-04-12T20:28:09.935Z,5.57
2023-04-12T20:30:36.953Z,5.50
2023-04-12T20:33:04.302Z,5.48
2023-04-12T20:35:31.470Z,5.45
2023-04-12T20:37:58.410Z,5.42
2023-04-12T20:40:27.938Z,5.39
2023-04-12T20:42:54.817Z,5.37
2023-04-12T20:45:22.251Z,5.36
2023-04-12T20:47:49.284Z,5.35
2023-04-12T20:50:17.576Z,5.33
2023-04-12T20:52:45.567Z,5.30
2023-04-12T20:55:14.193Z,5.27
2023-04-12T20:57:41.839Z,5.25
2023-04-12T21:00:14.528Z,5.21
2023-04-12T21:02:41.474Z,5.20
2023-04-12T21:05:08.570Z,5.17
2023-04-12T21:07:36.180Z,5.13
2023-04-12T21:10:03.523Z,5.11
2023-04-12T21:12:32.233Z,5.06
2023-04-12T21:15:00.794Z,5.03
2023-04-12T21:17:29.938Z,5.04
2023-04-12T21:19:58.344Z,5.03
2023-04-12T21:22:25.253Z,4.99
2023-04-12T21:24:52.148Z,4.95
2023-04-12T21:27:19.657Z,4.95
2023-04-12T21:29:47.301Z,4.94
2023-04-12T21:32:14.487Z,4.88
2023-04-12T21:34:41.410Z,4.86
2023-04-12T21:37:09.394Z,4.71
2023-04-12T21:39:36.607Z,4.19
2023-04-12T21:42:03.621Z,3.92
2023-04-12T21:44:30.975Z,4.08
2023-04-12T21:46:57.853Z,4.32
2023-04-12T21:49:24.775Z,4.47
2023-04-12T21:51:52.457Z,4.55
2023-04-12T21:54:20.381Z,4.57
2023-04-12T21:56:47.268Z,4.65
2023-04-12T21:59:14.049Z,4.70
2023-04-12T22:01:41.717Z,4.73
2023-04-12T22:04:08.802Z,4.75
2023-04-12T22:06:35.608Z,4.80
2023-04-12T22:09:04.494Z,4.83
2023-04-12T22:11:31.431Z,4.82
2023-04-12T22:13:58.280Z,4.83
2023-04-12T22:16:25.301Z,4.87
2023-04-12T22:18:52.862Z,4.89
2023-04-12T22:21:19.801Z,4.91
2023-04-12T22:23:46.896Z,4.92
2023-04-12T22:26:14.071Z,4.97
2023-04-12T22:28:41.485Z,4.97
2023-04-12T22:31:08.670Z,4.96
2023-04-12T22:33:40.137Z,4.98
2023-04-12T22:36:07.353Z,5.04
2023-04-12T22:38:38.004Z,4.95
2023-04-12T22:41:05.221Z,4.93
2023-04-12T22:43:42.268Z,5.03
2023-04-12T22:46:16.263Z,5.08
2023-04-12T22:48:48.097Z,5.12
2023-04-12T22:51:15.307Z,5.19
2023-04-12T22:53:43.560Z,5.20
2023-04-12T22:56:11.339Z,5.20
2023-04-12T22:58:40.347Z,5.24
2023-04-12T23:01:07.667Z,5.26
2023-04-12T23:03:35.026Z,5.34
2023-04-12T23:06:02.089Z,5.37
2023-04-12T23:08:29.337Z,5.39
2023-04-12T23:11:02.927Z,5.37
2023-04-12T23:13:33.832Z,5.37
2023-04-12T23:16:01.976Z,5.34
2023-04-12T23:18:28.931Z,5.30
2023-04-12T23:23:24.680Z,5.24
2023-04-12T23:25:52.408Z,5.23
2023-04-12T23:28:19.669Z,5.23
2023-04-12T23:30:49.004Z,5.23
2023-04-12T23:33:20.632Z,5.21
2023-04-12T23:35:53.080Z,5.16
2023-04-12T23:38:24.647Z,5.06
2023-04-12T23:40:54.200Z,4.93
2023-04-12T23:43:22.544Z,4.88
2023-04-12T23:45:49.631Z,4.90
2023-04-12T23:48:16.697Z,4.93
2023-04-12T23:50:45.765Z,4.97
2023-04-12T23:53:13.004Z,5.05
2023-04-12T23:55:42.046Z,5.11
2023-04-12T23:58:09.408Z,5.14
